JNA205 RKSS-RKPC
Flight info
| Callsign | JNA205 |
|---|---|
| Flight time | 1h 3m |
| Altitude | 26000 |
| Route | BULTI Y711 DOTOL |
| Aircraft | B772/H-SDE2E3FGHIJ5LORVWXY/LB1D1 |
Departure
| Time | 2026-04-30 04:54 |
|---|---|
| Airport | Gimpo International Airport (RKSS) |
Arrival
| Time | 2026-04-30 05:57 |
|---|---|
| Airport | Jeju International Airport (RKPC) |
| Time | Latitude | Longitude | Altitude | Speed | Heading |
|---|---|---|---|---|---|
| 2026-04-30 04:32 | 37.55886 | 126.80153 | 61 ft | 0 kts | 44° |
| 2026-04-30 04:45 | 37.55877 | 126.80142 | 61 ft | 4 kts | 48° |
| 2026-04-30 04:46 | 37.55860 | 126.80116 | 68 ft | 4 kts | 59° |
| 2026-04-30 04:46 | 37.55848 | 126.80085 | 61 ft | 4 kts | 74° |
| 2026-04-30 04:46 | 37.55844 | 126.80052 | 61 ft | 4 kts | 93° |
| 2026-04-30 04:46 | 37.55849 | 126.80022 | 61 ft | 4 kts | 121° |
| 2026-04-30 04:47 | 37.55856 | 126.80009 | 61 ft | 0 kts | 135° |
| 2026-04-30 04:49 | 37.55836 | 126.80035 | 61 ft | 13 kts | 135° |
| 2026-04-30 04:49 | 37.55748 | 126.80147 | 63 ft | 32 kts | 135° |
| 2026-04-30 04:50 | 37.55535 | 126.80375 | 61 ft | 38 kts | 144° |
| 2026-04-30 04:50 | 37.55384 | 126.80558 | 62 ft | 25 kts | 135° |
| 2026-04-30 04:50 | 37.55277 | 126.80584 | 66 ft | 15 kts | 182° |
| 2026-04-30 04:50 | 37.55174 | 126.80568 | 61 ft | 15 kts | 199° |
| 2026-04-30 04:51 | 37.55118 | 126.80577 | 60 ft | 8 kts | 133° |
| 2026-04-30 04:51 | 37.55075 | 126.80619 | 62 ft | 8 kts | 141° |
| 2026-04-30 04:51 | 37.55034 | 126.80662 | 60 ft | 8 kts | 140° |
| 2026-04-30 04:51 | 37.54996 | 126.80710 | 63 ft | 8 kts | 135° |
| 2026-04-30 04:52 | 37.54963 | 126.80764 | 63 ft | 8 kts | 123° |
| 2026-04-30 04:52 | 37.54923 | 126.80814 | 66 ft | 9 kts | 155° |
| 2026-04-30 04:52 | 37.54850 | 126.80805 | 63 ft | 12 kts | 205° |
| 2026-04-30 04:52 | 37.54807 | 126.80725 | 57 ft | 11 kts | 266° |
| 2026-04-30 04:53 | 37.54839 | 126.80639 | 59 ft | 15 kts | 312° |
| 2026-04-30 04:53 | 37.54959 | 126.80481 | 61 ft | 33 kts | 315° |
| 2026-04-30 04:53 | 37.55211 | 126.80164 | 58 ft | 83 kts | 315° |
| 2026-04-30 04:53 | 37.55821 | 126.79400 | 129 ft | 156 kts | 314° |
| 2026-04-30 04:54 | 37.56553 | 126.78427 | 1337 ft | 151 kts | 311° |
| 2026-04-30 04:54 | 37.57268 | 126.77446 | 2724 ft | 152 kts | 313° |
| 2026-04-30 04:54 | 37.58045 | 126.76435 | 3276 ft | 171 kts | 312° |
| 2026-04-30 04:54 | 37.58924 | 126.75276 | 3495 ft | 195 kts | 313° |
| 2026-04-30 04:55 | 37.59912 | 126.73963 | 3701 ft | 218 kts | 313° |
| 2026-04-30 04:55 | 37.61014 | 126.72495 | 3895 ft | 242 kts | 311° |
| 2026-04-30 04:55 | 37.61922 | 126.70662 | 4181 ft | 257 kts | 285° |
| 2026-04-30 04:55 | 37.61981 | 126.68404 | 4786 ft | 261 kts | 259° |
| 2026-04-30 04:56 | 37.61290 | 126.66290 | 4994 ft | 267 kts | 233° |
| 2026-04-30 04:56 | 37.60050 | 126.64594 | 5003 ft | 269 kts | 225° |
| 2026-04-30 04:56 | 37.58759 | 126.62885 | 5004 ft | 269 kts | 226° |
| 2026-04-30 04:56 | 37.57484 | 126.61170 | 5001 ft | 267 kts | 226° |
| 2026-04-30 04:57 | 37.56083 | 126.59697 | 5001 ft | 264 kts | 204° |
| 2026-04-30 04:57 | 37.54272 | 126.59262 | 5424 ft | 267 kts | 181° |
| 2026-04-30 04:57 | 37.52410 | 126.59211 | 6251 ft | 266 kts | 181° |
| 2026-04-30 04:57 | 37.50562 | 126.59121 | 7062 ft | 267 kts | 180° |
| 2026-04-30 04:58 | 37.48718 | 126.59037 | 7762 ft | 264 kts | 181° |
| 2026-04-30 04:58 | 37.46883 | 126.58956 | 8071 ft | 264 kts | 180° |
| 2026-04-30 04:58 | 37.45023 | 126.58872 | 8622 ft | 269 kts | 180° |
| 2026-04-30 04:58 | 37.43153 | 126.58789 | 9026 ft | 268 kts | 180° |
| 2026-04-30 04:59 | 37.41261 | 126.58705 | 9006 ft | 274 kts | 180° |
| 2026-04-30 04:59 | 37.39989 | 126.58650 | 9016 ft | 276 kts | 180° |
| 2026-04-30 04:59 | 37.38069 | 126.58567 | 9007 ft | 275 kts | 180° |
| 2026-04-30 04:59 | 37.36193 | 126.58844 | 9149 ft | 275 kts | 160° |
| 2026-04-30 05:00 | 37.34405 | 126.59707 | 9866 ft | 276 kts | 158° |
| 2026-04-30 05:00 | 37.32592 | 126.60520 | 10615 ft | 281 kts | 160° |
| 2026-04-30 05:00 | 37.30684 | 126.61345 | 11024 ft | 302 kts | 161° |
| 2026-04-30 05:00 | 37.28574 | 126.62256 | 11023 ft | 337 kts | 161° |
| 2026-04-30 05:01 | 37.26358 | 126.63344 | 11046 ft | 350 kts | 152° |
| 2026-04-30 05:01 | 37.24266 | 126.64940 | 12000 ft | 354 kts | 147° |
| 2026-04-30 05:01 | 37.22218 | 126.66692 | 13100 ft | 358 kts | 147° |
| 2026-04-30 05:01 | 37.20138 | 126.68489 | 14033 ft | 367 kts | 148° |
| 2026-04-30 05:02 | 37.18007 | 126.70301 | 14884 ft | 373 kts | 148° |
| 2026-04-30 05:02 | 37.15835 | 126.72118 | 15726 ft | 378 kts | 149° |
| 2026-04-30 05:02 | 37.13631 | 126.73940 | 16015 ft | 381 kts | 149° |
| 2026-04-30 05:02 | 37.11437 | 126.75739 | 15987 ft | 381 kts | 149° |
| 2026-04-30 05:03 | 37.09221 | 126.77551 | 15988 ft | 379 kts | 149° |
| 2026-04-30 05:03 | 37.07012 | 126.79355 | 16000 ft | 379 kts | 149° |
| 2026-04-30 05:03 | 37.04748 | 126.80982 | 16001 ft | 377 kts | 160° |
| 2026-04-30 05:03 | 37.02151 | 126.81663 | 15991 ft | 375 kts | 179° |
| 2026-04-30 05:04 | 36.99587 | 126.81674 | 16013 ft | 374 kts | 181° |
| 2026-04-30 05:04 | 36.96986 | 126.81711 | 15994 ft | 371 kts | 180° |
| 2026-04-30 05:04 | 36.94408 | 126.81783 | 15992 ft | 370 kts | 180° |
| 2026-04-30 05:04 | 36.91844 | 126.81865 | 15994 ft | 369 kts | 180° |
| 2026-04-30 05:05 | 36.89277 | 126.81948 | 15998 ft | 368 kts | 180° |
| 2026-04-30 05:05 | 36.86715 | 126.82029 | 16000 ft | 369 kts | 180° |
| 2026-04-30 05:05 | 36.84146 | 126.82112 | 16010 ft | 370 kts | 180° |
| 2026-04-30 05:06 | 36.78987 | 126.82278 | 15994 ft | 372 kts | 180° |
| 2026-04-30 05:06 | 36.76395 | 126.82361 | 16004 ft | 372 kts | 180° |
| 2026-04-30 05:06 | 36.73802 | 126.82444 | 16003 ft | 373 kts | 180° |
| 2026-04-30 05:06 | 36.71207 | 126.82528 | 16062 ft | 376 kts | 180° |
| 2026-04-30 05:07 | 36.68573 | 126.82629 | 16903 ft | 380 kts | 180° |
| 2026-04-30 05:07 | 36.65928 | 126.82734 | 17965 ft | 381 kts | 180° |
| 2026-04-30 05:07 | 36.63273 | 126.82840 | 18815 ft | 384 kts | 181° |
| 2026-04-30 05:07 | 36.60584 | 126.82945 | 19600 ft | 388 kts | 181° |
| 2026-04-30 05:08 | 36.57906 | 126.83049 | 20348 ft | 392 kts | 181° |
| 2026-04-30 05:08 | 36.55162 | 126.83154 | 21079 ft | 396 kts | 182° |
| 2026-04-30 05:08 | 36.52405 | 126.83258 | 21856 ft | 398 kts | 183° |
| 2026-04-30 05:08 | 36.49623 | 126.83362 | 22612 ft | 402 kts | 183° |
| 2026-04-30 05:09 | 36.46809 | 126.83471 | 23311 ft | 407 kts | 183° |
| 2026-04-30 05:09 | 36.43958 | 126.83577 | 23934 ft | 412 kts | 183° |
| 2026-04-30 05:09 | 36.41076 | 126.83686 | 24553 ft | 415 kts | 184° |
| 2026-04-30 05:09 | 36.38184 | 126.83731 | 25163 ft | 416 kts | 187° |
| 2026-04-30 05:10 | 36.35302 | 126.83462 | 25740 ft | 415 kts | 191° |
| 2026-04-30 05:10 | 36.32434 | 126.83115 | 26036 ft | 412 kts | 190° |
| 2026-04-30 05:10 | 36.29577 | 126.82792 | 26018 ft | 413 kts | 190° |
| 2026-04-30 05:10 | 36.26711 | 126.82477 | 26019 ft | 414 kts | 190° |
| 2026-04-30 05:11 | 36.23845 | 126.82165 | 26020 ft | 414 kts | 190° |
| 2026-04-30 05:11 | 36.20969 | 126.81854 | 26032 ft | 414 kts | 190° |
| 2026-04-30 05:11 | 36.18097 | 126.81543 | 26032 ft | 414 kts | 190° |
| 2026-04-30 05:11 | 36.15227 | 126.81233 | 26029 ft | 413 kts | 190° |
| 2026-04-30 05:12 | 36.12361 | 126.80922 | 26032 ft | 413 kts | 190° |
| 2026-04-30 05:12 | 36.09530 | 126.80614 | 26035 ft | 413 kts | 190° |
| 2026-04-30 05:12 | 36.06662 | 126.80302 | 26025 ft | 413 kts | 190° |
| 2026-04-30 05:12 | 36.03796 | 126.79991 | 26036 ft | 413 kts | 190° |
| 2026-04-30 05:13 | 36.00936 | 126.79681 | 26028 ft | 413 kts | 190° |
| 2026-04-30 05:13 | 35.98076 | 126.79371 | 26017 ft | 412 kts | 190° |
| 2026-04-30 05:13 | 35.95220 | 126.79063 | 26021 ft | 412 kts | 190° |
| 2026-04-30 05:13 | 35.92366 | 126.78754 | 26023 ft | 412 kts | 190° |
| 2026-04-30 05:14 | 35.89510 | 126.78445 | 26031 ft | 411 kts | 190° |
| 2026-04-30 05:14 | 35.86658 | 126.78136 | 26031 ft | 411 kts | 190° |
| 2026-04-30 05:14 | 35.83811 | 126.77828 | 26047 ft | 411 kts | 190° |
| 2026-04-30 05:14 | 35.80958 | 126.77519 | 26046 ft | 411 kts | 190° |
| 2026-04-30 05:15 | 35.78109 | 126.77211 | 26037 ft | 411 kts | 190° |
| 2026-04-30 05:15 | 35.75257 | 126.76902 | 26042 ft | 411 kts | 190° |
| 2026-04-30 05:15 | 35.72406 | 126.76594 | 26046 ft | 411 kts | 190° |
| 2026-04-30 05:15 | 35.69557 | 126.76286 | 26047 ft | 411 kts | 190° |
| 2026-04-30 05:16 | 35.66702 | 126.75979 | 26047 ft | 411 kts | 190° |
| 2026-04-30 05:16 | 35.63853 | 126.75671 | 26045 ft | 411 kts | 190° |
| 2026-04-30 05:16 | 35.61007 | 126.75365 | 26044 ft | 411 kts | 190° |
| 2026-04-30 05:16 | 35.58158 | 126.75058 | 26028 ft | 411 kts | 191° |
| 2026-04-30 05:17 | 35.55311 | 126.74750 | 26041 ft | 410 kts | 191° |
| 2026-04-30 05:17 | 35.52495 | 126.74487 | 26061 ft | 410 kts | 189° |
| 2026-04-30 05:17 | 35.49656 | 126.74190 | 26055 ft | 409 kts | 191° |
| 2026-04-30 05:17 | 35.46823 | 126.73863 | 26047 ft | 409 kts | 191° |
| 2026-04-30 05:18 | 35.43983 | 126.73549 | 26058 ft | 409 kts | 190° |
| 2026-04-30 05:18 | 35.41140 | 126.73236 | 26043 ft | 410 kts | 190° |
| 2026-04-30 05:18 | 35.38306 | 126.72924 | 26021 ft | 409 kts | 190° |
| 2026-04-30 05:18 | 35.35474 | 126.72622 | 26046 ft | 408 kts | 190° |
| 2026-04-30 05:19 | 35.32651 | 126.72322 | 26050 ft | 407 kts | 190° |
| 2026-04-30 05:19 | 35.29826 | 126.72019 | 26046 ft | 407 kts | 190° |
| 2026-04-30 05:19 | 35.27003 | 126.71720 | 26043 ft | 408 kts | 190° |
| 2026-04-30 05:19 | 35.24176 | 126.71418 | 26038 ft | 408 kts | 191° |
| 2026-04-30 05:20 | 35.21384 | 126.71121 | 26045 ft | 408 kts | 190° |
| 2026-04-30 05:20 | 35.18550 | 126.70823 | 26024 ft | 409 kts | 191° |
| 2026-04-30 05:20 | 35.15714 | 126.70521 | 26033 ft | 409 kts | 191° |
| 2026-04-30 05:20 | 35.12875 | 126.70218 | 26036 ft | 409 kts | 191° |
| 2026-04-30 05:21 | 35.10038 | 126.69916 | 26041 ft | 409 kts | 191° |
| 2026-04-30 05:21 | 35.07200 | 126.69615 | 26036 ft | 409 kts | 191° |
| 2026-04-30 05:21 | 35.04363 | 126.69316 | 26038 ft | 409 kts | 191° |
| 2026-04-30 05:21 | 35.01533 | 126.69020 | 26039 ft | 408 kts | 191° |
| 2026-04-30 05:22 | 34.98703 | 126.68719 | 26027 ft | 408 kts | 191° |
| 2026-04-30 05:22 | 34.95882 | 126.68415 | 26036 ft | 407 kts | 191° |
| 2026-04-30 05:22 | 34.93057 | 126.68115 | 26036 ft | 407 kts | 191° |
| 2026-04-30 05:22 | 34.90232 | 126.67817 | 26035 ft | 408 kts | 191° |
| 2026-04-30 05:23 | 34.87408 | 126.67519 | 26035 ft | 407 kts | 191° |
| 2026-04-30 05:23 | 34.84586 | 126.67220 | 26039 ft | 407 kts | 191° |
| 2026-04-30 05:23 | 34.81760 | 126.66922 | 26023 ft | 408 kts | 191° |
| 2026-04-30 05:23 | 34.78908 | 126.66618 | 25546 ft | 415 kts | 191° |
| 2026-04-30 05:24 | 34.76015 | 126.66306 | 24847 ft | 419 kts | 191° |
| 2026-04-30 05:24 | 34.73113 | 126.65998 | 24147 ft | 419 kts | 190° |
| 2026-04-30 05:24 | 34.70201 | 126.65692 | 23456 ft | 422 kts | 190° |
| 2026-04-30 05:24 | 34.67292 | 126.65391 | 22639 ft | 417 kts | 189° |
| 2026-04-30 05:25 | 34.64412 | 126.65098 | 21871 ft | 414 kts | 189° |
| 2026-04-30 05:25 | 34.61539 | 126.64802 | 21116 ft | 417 kts | 189° |
| 2026-04-30 05:25 | 34.58629 | 126.64492 | 20356 ft | 417 kts | 189° |
| 2026-04-30 05:25 | 34.55786 | 126.64190 | 19600 ft | 409 kts | 189° |
| 2026-04-30 05:26 | 34.52946 | 126.63886 | 18908 ft | 410 kts | 189° |
| 2026-04-30 05:26 | 34.50104 | 126.63590 | 18217 ft | 411 kts | 188° |
| 2026-04-30 05:26 | 34.47242 | 126.63296 | 17436 ft | 420 kts | 188° |
| 2026-04-30 05:26 | 34.44242 | 126.62980 | 16794 ft | 428 kts | 188° |
| 2026-04-30 05:27 | 34.41430 | 126.62690 | 16283 ft | 388 kts | 188° |
| 2026-04-30 05:27 | 34.38792 | 126.62417 | 16099 ft | 382 kts | 188° |
| 2026-04-30 05:27 | 34.36141 | 126.62137 | 16040 ft | 380 kts | 188° |
| 2026-04-30 05:27 | 34.33524 | 126.61862 | 16033 ft | 375 kts | 188° |
| 2026-04-30 05:28 | 34.30921 | 126.61589 | 16036 ft | 376 kts | 188° |
| 2026-04-30 05:28 | 34.28314 | 126.61317 | 16037 ft | 377 kts | 188° |
| 2026-04-30 05:28 | 34.25701 | 126.61045 | 16035 ft | 377 kts | 188° |
| 2026-04-30 05:28 | 34.23076 | 126.60771 | 15581 ft | 381 kts | 188° |
| 2026-04-30 05:29 | 34.20442 | 126.60497 | 15083 ft | 378 kts | 188° |
| 2026-04-30 05:29 | 34.17830 | 126.60227 | 14581 ft | 374 kts | 188° |
| 2026-04-30 05:29 | 34.15253 | 126.59959 | 14104 ft | 370 kts | 188° |
| 2026-04-30 05:29 | 34.12698 | 126.59695 | 13610 ft | 368 kts | 188° |
| 2026-04-30 05:30 | 34.10155 | 126.59430 | 13096 ft | 366 kts | 187° |
| 2026-04-30 05:30 | 34.07626 | 126.59166 | 12605 ft | 363 kts | 187° |
| 2026-04-30 05:30 | 34.05196 | 126.58918 | 12287 ft | 331 kts | 187° |
| 2026-04-30 05:30 | 34.03021 | 126.58703 | 11961 ft | 298 kts | 187° |
| 2026-04-30 05:31 | 34.01044 | 126.58412 | 11414 ft | 276 kts | 197° |
| 2026-04-30 05:31 | 33.99292 | 126.57628 | 10710 ft | 266 kts | 207° |
| 2026-04-30 05:31 | 33.97681 | 126.56486 | 10271 ft | 269 kts | 217° |
| 2026-04-30 05:31 | 33.96223 | 126.55099 | 10025 ft | 264 kts | 220° |
| 2026-04-30 05:32 | 33.94817 | 126.53699 | 9755 ft | 261 kts | 220° |
| 2026-04-30 05:32 | 33.93412 | 126.52313 | 9381 ft | 262 kts | 220° |
| 2026-04-30 05:32 | 33.91998 | 126.50931 | 9004 ft | 262 kts | 219° |
| 2026-04-30 05:32 | 33.90579 | 126.49549 | 8659 ft | 262 kts | 219° |
| 2026-04-30 05:33 | 33.89184 | 126.48195 | 8353 ft | 261 kts | 219° |
| 2026-04-30 05:33 | 33.87776 | 126.46831 | 8088 ft | 257 kts | 219° |
| 2026-04-30 05:33 | 33.86392 | 126.45490 | 7950 ft | 255 kts | 219° |
| 2026-04-30 05:33 | 33.85012 | 126.44156 | 7842 ft | 255 kts | 219° |
| 2026-04-30 05:34 | 33.83623 | 126.42810 | 7717 ft | 258 kts | 220° |
| 2026-04-30 05:34 | 33.82223 | 126.41457 | 7609 ft | 259 kts | 219° |
| 2026-04-30 05:34 | 33.80811 | 126.40107 | 7522 ft | 260 kts | 219° |
| 2026-04-30 05:34 | 33.79395 | 126.38735 | 7427 ft | 263 kts | 219° |
| 2026-04-30 05:35 | 33.77967 | 126.37348 | 7327 ft | 264 kts | 219° |
| 2026-04-30 05:35 | 33.76534 | 126.35962 | 7233 ft | 265 kts | 219° |
| 2026-04-30 05:35 | 33.75092 | 126.34573 | 7152 ft | 266 kts | 219° |
| 2026-04-30 05:35 | 33.73753 | 126.33094 | 7044 ft | 258 kts | 235° |
| 2026-04-30 05:36 | 33.73113 | 126.31106 | 7005 ft | 259 kts | 263° |
| 2026-04-30 05:36 | 33.73188 | 126.28955 | 6991 ft | 258 kts | 279° |
| 2026-04-30 05:36 | 33.73493 | 126.26823 | 7002 ft | 261 kts | 279° |
| 2026-04-30 05:36 | 33.73789 | 126.24647 | 7002 ft | 266 kts | 279° |
| 2026-04-30 05:37 | 33.74068 | 126.22457 | 6987 ft | 261 kts | 274° |
| 2026-04-30 05:37 | 33.73966 | 126.20303 | 6999 ft | 260 kts | 262° |
| 2026-04-30 05:37 | 33.73676 | 126.18145 | 6999 ft | 263 kts | 261° |
| 2026-04-30 05:37 | 33.73391 | 126.15973 | 6998 ft | 264 kts | 261° |
| 2026-04-30 05:38 | 33.73121 | 126.13795 | 6998 ft | 264 kts | 262° |
| 2026-04-30 05:38 | 33.72709 | 126.11677 | 6986 ft | 259 kts | 249° |
| 2026-04-30 05:38 | 33.71957 | 126.09714 | 6991 ft | 259 kts | 244° |
| 2026-04-30 05:38 | 33.71161 | 126.07773 | 6993 ft | 260 kts | 244° |
| 2026-04-30 05:39 | 33.70384 | 126.05812 | 6989 ft | 261 kts | 245° |
| 2026-04-30 05:39 | 33.69628 | 126.03839 | 6978 ft | 257 kts | 243° |
| 2026-04-30 05:39 | 33.68498 | 126.02225 | 6983 ft | 256 kts | 216° |
| 2026-04-30 05:39 | 33.66951 | 126.01147 | 6995 ft | 259 kts | 210° |
| 2026-04-30 05:40 | 33.65381 | 126.00070 | 6988 ft | 261 kts | 211° |
| 2026-04-30 05:40 | 33.63737 | 125.99110 | 6986 ft | 265 kts | 201° |
| 2026-04-30 05:40 | 33.61949 | 125.98560 | 6983 ft | 265 kts | 191° |
| 2026-04-30 05:40 | 33.60163 | 125.98145 | 6978 ft | 265 kts | 192° |
| 2026-04-30 05:41 | 33.58331 | 125.97814 | 6986 ft | 267 kts | 186° |
| 2026-04-30 05:41 | 33.56468 | 125.97858 | 6984 ft | 269 kts | 175° |
| 2026-04-30 05:41 | 33.54631 | 125.98305 | 6985 ft | 268 kts | 168° |
| 2026-04-30 05:41 | 33.52836 | 125.98416 | 6980 ft | 259 kts | 197° |
| 2026-04-30 05:42 | 33.51228 | 125.97479 | 6994 ft | 260 kts | 212° |
| 2026-04-30 05:42 | 33.49658 | 125.96386 | 6980 ft | 257 kts | 213° |
| 2026-04-30 05:42 | 33.48160 | 125.95312 | 6888 ft | 247 kts | 210° |
| 2026-04-30 05:42 | 33.46614 | 125.94466 | 6695 ft | 243 kts | 198° |
| 2026-04-30 05:43 | 33.44953 | 125.94344 | 6460 ft | 243 kts | 168° |
| 2026-04-30 05:43 | 33.43482 | 125.95304 | 6128 ft | 245 kts | 133° |
| 2026-04-30 05:43 | 33.42653 | 125.97074 | 5856 ft | 248 kts | 102° |
| 2026-04-30 05:43 | 33.42623 | 125.99114 | 5764 ft | 246 kts | 75° |
| 2026-04-30 05:44 | 33.43463 | 126.00821 | 5686 ft | 239 kts | 36° |
| 2026-04-30 05:44 | 33.44964 | 126.01514 | 5581 ft | 233 kts | 358° |
| 2026-04-30 05:44 | 33.46507 | 126.01109 | 5464 ft | 225 kts | 340° |
| 2026-04-30 05:44 | 33.47851 | 126.00146 | 5178 ft | 232 kts | 314° |
| 2026-04-30 05:45 | 33.48598 | 125.98430 | 5033 ft | 238 kts | 283° |
| 2026-04-30 05:45 | 33.48497 | 125.96434 | 4820 ft | 247 kts | 252° |
| 2026-04-30 05:45 | 33.47537 | 125.94709 | 4637 ft | 255 kts | 221° |
| 2026-04-30 05:45 | 33.45965 | 125.93759 | 4527 ft | 256 kts | 191° |
| 2026-04-30 05:46 | 33.44194 | 125.93744 | 4308 ft | 255 kts | 175° |
| 2026-04-30 05:46 | 33.43015 | 125.93773 | 4065 ft | 259 kts | 181° |
| 2026-04-30 05:46 | 33.40565 | 125.93560 | 3659 ft | 264 kts | 181° |
| 2026-04-30 05:46 | 33.38790 | 125.93932 | 3543 ft | 258 kts | 151° |
| 2026-04-30 05:47 | 33.37829 | 125.94719 | 3544 ft | 251 kts | 132° |
| 2026-04-30 05:47 | 33.36965 | 125.96460 | 3549 ft | 242 kts | 99° |
| 2026-04-30 05:47 | 33.36921 | 125.98434 | 3545 ft | 236 kts | 78° |
| 2026-04-30 05:47 | 33.37156 | 126.00397 | 3559 ft | 243 kts | 79° |
| 2026-04-30 05:48 | 33.37406 | 126.02401 | 3524 ft | 243 kts | 78° |
| 2026-04-30 05:48 | 33.37663 | 126.04371 | 3362 ft | 237 kts | 78° |
| 2026-04-30 05:48 | 33.37911 | 126.06282 | 3206 ft | 229 kts | 77° |
| 2026-04-30 05:48 | 33.38137 | 126.08129 | 3091 ft | 221 kts | 78° |
| 2026-04-30 05:49 | 33.38360 | 126.09933 | 2988 ft | 218 kts | 79° |
| 2026-04-30 05:49 | 33.38596 | 126.11725 | 2942 ft | 219 kts | 78° |
| 2026-04-30 05:49 | 33.38833 | 126.13532 | 2900 ft | 221 kts | 79° |
| 2026-04-30 05:49 | 33.39099 | 126.15472 | 2900 ft | 220 kts | 76° |
| 2026-04-30 05:50 | 33.39364 | 126.17237 | 2879 ft | 212 kts | 76° |
| 2026-04-30 05:50 | 33.39640 | 126.18964 | 2880 ft | 211 kts | 76° |
| 2026-04-30 05:50 | 33.39925 | 126.20662 | 2866 ft | 206 kts | 75° |
| 2026-04-30 05:50 | 33.40213 | 126.22317 | 2910 ft | 201 kts | 75° |
| 2026-04-30 05:51 | 33.40511 | 126.23985 | 2895 ft | 204 kts | 75° |
| 2026-04-30 05:51 | 33.40805 | 126.25625 | 2875 ft | 200 kts | 76° |
| 2026-04-30 05:51 | 33.41091 | 126.27210 | 2847 ft | 190 kts | 75° |
| 2026-04-30 05:51 | 33.41363 | 126.28722 | 2726 ft | 184 kts | 74° |
| 2026-04-30 05:52 | 33.41653 | 126.30139 | 2667 ft | 167 kts | 66° |
| 2026-04-30 05:52 | 33.42138 | 126.31368 | 2656 ft | 161 kts | 60° |
| 2026-04-30 05:52 | 33.42670 | 126.32511 | 2647 ft | 152 kts | 57° |
| 2026-04-30 05:52 | 33.43201 | 126.33582 | 2642 ft | 147 kts | 56° |
| 2026-04-30 05:53 | 33.43722 | 126.34607 | 2505 ft | 138 kts | 55° |
| 2026-04-30 05:53 | 33.44201 | 126.35541 | 2335 ft | 129 kts | 56° |
| 2026-04-30 05:53 | 33.44663 | 126.36443 | 2154 ft | 125 kts | 56° |
| 2026-04-30 05:53 | 33.45122 | 126.37336 | 1991 ft | 129 kts | 57° |
| 2026-04-30 05:54 | 33.45598 | 126.38267 | 1825 ft | 131 kts | 56° |
| 2026-04-30 05:54 | 33.46083 | 126.39210 | 1642 ft | 137 kts | 56° |
| 2026-04-30 05:54 | 33.46566 | 126.40153 | 1423 ft | 127 kts | 56° |
| 2026-04-30 05:54 | 33.47009 | 126.41031 | 1266 ft | 122 kts | 56° |
| 2026-04-30 05:55 | 33.47460 | 126.41912 | 1112 ft | 125 kts | 55° |
| 2026-04-30 05:55 | 33.47913 | 126.42805 | 920 ft | 127 kts | 58° |
| 2026-04-30 05:55 | 33.48345 | 126.43707 | 790 ft | 120 kts | 58° |
| 2026-04-30 05:55 | 33.48778 | 126.44549 | 629 ft | 119 kts | 54° |
| 2026-04-30 05:56 | 33.49231 | 126.45407 | 425 ft | 125 kts | 55° |
| 2026-04-30 05:56 | 33.49696 | 126.46279 | 297 ft | 121 kts | 54° |
| 2026-04-30 05:56 | 33.50125 | 126.47097 | 104 ft | 109 kts | 54° |
| 2026-04-30 05:56 | 33.50467 | 126.47771 | 100 ft | 78 kts | 59° |
| 2026-04-30 05:57 | 33.50684 | 126.48197 | 100 ft | 42 kts | 60° |
| 2026-04-30 05:57 | 33.50758 | 126.48415 | 98 ft | 29 kts | 81° |
| 2026-04-30 05:57 | 33.50767 | 126.48646 | 96 ft | 26 kts | 88° |
| 2026-04-30 05:57 | 33.50732 | 126.48768 | 98 ft | 15 kts | 149° |
| 2026-04-30 05:58 | 33.50649 | 126.48819 | 96 ft | 10 kts | 199° |
| 2026-04-30 05:58 | 33.50626 | 126.48802 | 95 ft | 0 kts | 211° |
| 2026-04-30 05:58 | 33.50603 | 126.48796 | 96 ft | 1 kts | 187° |
| 2026-04-30 05:58 | 33.50591 | 126.48797 | 95 ft | 2 kts | 174° |
| 2026-04-30 05:59 | 33.50580 | 126.48798 | 95 ft | 2 kts | 174° |
| 2026-04-30 05:59 | 33.50568 | 126.48803 | 96 ft | 2 kts | 159° |
| 2026-04-30 05:59 | 33.50556 | 126.48809 | 97 ft | 2 kts | 154° |
| 2026-04-30 05:59 | 33.50545 | 126.48816 | 97 ft | 2 kts | 151° |
| 2026-04-30 06:00 | 33.50534 | 126.48824 | 96 ft | 2 kts | 148° |
| 2026-04-30 06:00 | 33.50526 | 126.48829 | 96 ft | 0 kts | 150° |